Terminal Aerodrome Forecast
Issued by NWS

Current Version | Previous Version | Text Only | Print | Product List | Glossary Off
Versions: 1 2 3 4 5 6 7 8 9 10 11 12 13 14 15 16 17 18 19 20 21 22 23 24 25 26 27 28

104
FTUS41 KRNK 221124
TAFLWB
TAF
KLWB 221124Z 2212/2312 00000KT P6SM BKN200
     FM221800 23005KT P6SM BKN150
     FM230400 22004KT 5SM -SHRA OVC025
     FM230900 18005KT 4SM -SHRA OVC015=

USA.gov is the U.S. government's official web portal to all federal, state and local government web resources and services.